sensor_id;sensor_type;location;lat;lon;timestamp;P1;durP1;ratioP1;P2;durP2;ratioP2
69126;SDS011;56688;50.234;19.292;2024-02-26T00:00:13;61.60;;;27.90;;
69126;SDS011;56688;50.234;19.292;2024-02-26T00:02:42;60.00;;;29.30;;
69126;SDS011;56688;50.234;19.292;2024-02-26T00:05:09;61.90;;;28.70;;
69126;SDS011;56688;50.234;19.292;2024-02-26T00:07:36;55.00;;;28.50;;
69126;SDS011;56688;50.234;19.292;2024-02-26T00:10:03;61.30;;;30.10;;
69126;SDS011;56688;50.234;19.292;2024-02-26T00:12:31;61.40;;;29.20;;
69126;SDS011;56688;50.234;19.292;2024-02-26T00:14:57;54.20;;;26.00;;
69126;SDS011;56688;50.234;19.292;2024-02-26T00:17:25;59.00;;;28.60;;
69126;SDS011;56688;50.234;19.292;2024-02-26T00:19:52;54.50;;;25.70;;
69126;SDS011;56688;50.234;19.292;2024-02-26T00:22:20;52.80;;;27.40;;
69126;SDS011;56688;50.234;19.292;2024-02-26T00:24:48;58.80;;;28.80;;
69126;SDS011;56688;50.234;19.292;2024-02-26T00:27:15;55.80;;;28.40;;
69126;SDS011;56688;50.234;19.292;2024-02-26T00:29:42;56.20;;;28.30;;
69126;SDS011;56688;50.234;19.292;2024-02-26T00:32:10;59.30;;;28.90;;
69126;SDS011;56688;50.234;19.292;2024-02-26T00:34:37;62.40;;;29.80;;
69126;SDS011;56688;50.234;19.292;2024-02-26T00:37:04;62.00;;;28.50;;
69126;SDS011;56688;50.234;19.292;2024-02-26T00:39:31;65.60;;;30.60;;
69126;SDS011;56688;50.234;19.292;2024-02-26T00:41:58;61.60;;;27.90;;
69126;SDS011;56688;50.234;19.292;2024-02-26T00:44:25;61.10;;;27.30;;
69126;SDS011;56688;50.234;19.292;2024-02-26T00:46:52;73.70;;;29.10;;
69126;SDS011;56688;50.234;19.292;2024-02-26T00:49:20;74.00;;;31.80;;
69126;SDS011;56688;50.234;19.292;2024-02-26T00:51:47;85.40;;;34.90;;
69126;SDS011;56688;50.234;19.292;2024-02-26T00:54:14;63.70;;;27.70;;
69126;SDS011;56688;50.234;19.292;2024-02-26T00:56:41;66.20;;;28.00;;
69126;SDS011;56688;50.234;19.292;2024-02-26T00:59:08;70.40;;;28.10;;
69126;SDS011;56688;50.234;19.292;2024-02-26T01:01:35;62.30;;;26.10;;
69126;SDS011;56688;50.234;19.292;2024-02-26T01:04:02;47.20;;;19.50;;
69126;SDS011;56688;50.234;19.292;2024-02-26T01:06:30;42.30;;;19.10;;
69126;SDS011;56688;50.234;19.292;2024-02-26T01:08:57;42.60;;;18.40;;
69126;SDS011;56688;50.234;19.292;2024-02-26T01:11:25;40.20;;;16.90;;
69126;SDS011;56688;50.234;19.292;2024-02-26T01:13:52;40.00;;;17.20;;
69126;SDS011;56688;50.234;19.292;2024-02-26T01:16:23;35.60;;;17.30;;
69126;SDS011;56688;50.234;19.292;2024-02-26T01:18:50;35.00;;;16.50;;
69126;SDS011;56688;50.234;19.292;2024-02-26T01:21:18;40.40;;;17.30;;
69126;SDS011;56688;50.234;19.292;2024-02-26T01:23:45;40.60;;;17.30;;
69126;SDS011;56688;50.234;19.292;2024-02-26T01:26:12;39.50;;;17.40;;
69126;SDS011;56688;50.234;19.292;2024-02-26T01:28:39;42.60;;;18.10;;
69126;SDS011;56688;50.234;19.292;2024-02-26T01:31:06;42.70;;;17.70;;
69126;SDS011;56688;50.234;19.292;2024-02-26T01:33:35;35.30;;;16.50;;
69126;SDS011;56688;50.234;19.292;2024-02-26T01:36:03;34.50;;;15.50;;
69126;SDS011;56688;50.234;19.292;2024-02-26T01:38:30;36.20;;;15.10;;
69126;SDS011;56688;50.234;19.292;2024-02-26T01:40:57;35.60;;;15.40;;
69126;SDS011;56688;50.234;19.292;2024-02-26T01:43:24;39.80;;;16.50;;
69126;SDS011;56688;50.234;19.292;2024-02-26T01:45:51;36.00;;;15.90;;
69126;SDS011;56688;50.234;19.292;2024-02-26T01:48:18;38.90;;;16.50;;
69126;SDS011;56688;50.234;19.292;2024-02-26T01:50:46;37.00;;;16.60;;
69126;SDS011;56688;50.234;19.292;2024-02-26T01:53:13;38.00;;;16.90;;
69126;SDS011;56688;50.234;19.292;2024-02-26T01:55:40;35.90;;;15.60;;
69126;SDS011;56688;50.234;19.292;2024-02-26T01:58:08;32.60;;;15.30;;
69126;SDS011;56688;50.234;19.292;2024-02-26T02:00:36;36.00;;;16.00;;
69126;SDS011;56688;50.234;19.292;2024-02-26T02:03:03;33.30;;;15.70;;
69126;SDS011;56688;50.234;19.292;2024-02-26T02:05:31;34.10;;;16.50;;
69126;SDS011;56688;50.234;19.292;2024-02-26T02:08:00;47.00;;;21.20;;
69126;SDS011;56688;50.234;19.292;2024-02-26T02:10:28;35.70;;;16.30;;
69126;SDS011;56688;50.234;19.292;2024-02-26T02:12:55;51.80;;;22.00;;
69126;SDS011;56688;50.234;19.292;2024-02-26T02:15:22;41.40;;;19.90;;
69126;SDS011;56688;50.234;19.292;2024-02-26T02:17:50;42.60;;;20.60;;
69126;SDS011;56688;50.234;19.292;2024-02-26T02:20:18;39.70;;;18.10;;
69126;SDS011;56688;50.234;19.292;2024-02-26T02:22:45;56.50;;;26.00;;
69126;SDS011;56688;50.234;19.292;2024-02-26T02:25:13;57.50;;;27.30;;
69126;SDS011;56688;50.234;19.292;2024-02-26T02:27:41;51.80;;;26.30;;
69126;SDS011;56688;50.234;19.292;2024-02-26T02:30:09;54.30;;;23.50;;
69126;SDS011;56688;50.234;19.292;2024-02-26T02:32:38;55.20;;;25.90;;
69126;SDS011;56688;50.234;19.292;2024-02-26T02:35:08;52.80;;;25.80;;
69126;SDS011;56688;50.234;19.292;2024-02-26T02:37:36;52.40;;;24.70;;
69126;SDS011;56688;50.234;19.292;2024-02-26T02:40:04;54.50;;;25.20;;
69126;SDS011;56688;50.234;19.292;2024-02-26T02:42:31;47.20;;;23.20;;
69126;SDS011;56688;50.234;19.292;2024-02-26T02:44:59;55.30;;;24.50;;
69126;SDS011;56688;50.234;19.292;2024-02-26T02:47:26;52.30;;;25.40;;
69126;SDS011;56688;50.234;19.292;2024-02-26T02:49:53;52.20;;;24.50;;
69126;SDS011;56688;50.234;19.292;2024-02-26T02:52:20;47.80;;;22.60;;
69126;SDS011;56688;50.234;19.292;2024-02-26T02:54:47;44.20;;;21.90;;
69126;SDS011;56688;50.234;19.292;2024-02-26T02:57:14;43.30;;;20.10;;
69126;SDS011;56688;50.234;19.292;2024-02-26T02:59:41;37.10;;;18.70;;
69126;SDS011;56688;50.234;19.292;2024-02-26T03:02:08;36.20;;;17.50;;
69126;SDS011;56688;50.234;19.292;2024-02-26T03:04:36;44.60;;;19.80;;
69126;SDS011;56688;50.234;19.292;2024-02-26T03:07:03;54.60;;;25.50;;
69126;SDS011;56688;50.234;19.292;2024-02-26T03:09:30;64.70;;;30.50;;
69126;SDS011;56688;50.234;19.292;2024-02-26T03:11:57;61.10;;;31.00;;
69126;SDS011;56688;50.234;19.292;2024-02-26T03:14:24;58.10;;;27.80;;
69126;SDS011;56688;50.234;19.292;2024-02-26T03:16:53;50.20;;;25.80;;
69126;SDS011;56688;50.234;19.292;2024-02-26T03:19:21;54.00;;;25.20;;
69126;SDS011;56688;50.234;19.292;2024-02-26T03:21:49;46.10;;;23.20;;
69126;SDS011;56688;50.234;19.292;2024-02-26T03:24:16;51.10;;;24.40;;
69126;SDS011;56688;50.234;19.292;2024-02-26T03:26:43;49.40;;;23.80;;
69126;SDS011;56688;50.234;19.292;2024-02-26T03:29:10;47.90;;;23.30;;
69126;SDS011;56688;50.234;19.292;2024-02-26T03:31:37;51.20;;;25.10;;
69126;SDS011;56688;50.234;19.292;2024-02-26T03:34:04;51.90;;;25.50;;
69126;SDS011;56688;50.234;19.292;2024-02-26T03:36:31;50.60;;;25.30;;
69126;SDS011;56688;50.234;19.292;2024-02-26T03:38:58;48.30;;;23.70;;
69126;SDS011;56688;50.234;19.292;2024-02-26T03:41:25;51.40;;;23.50;;
69126;SDS011;56688;50.234;19.292;2024-02-26T03:43:53;38.50;;;19.60;;
69126;SDS011;56688;50.234;19.292;2024-02-26T03:46:20;45.00;;;22.40;;
69126;SDS011;56688;50.234;19.292;2024-02-26T03:48:47;44.50;;;22.20;;
69126;SDS011;56688;50.234;19.292;2024-02-26T03:51:14;44.80;;;22.70;;
69126;SDS011;56688;50.234;19.292;2024-02-26T03:53:41;50.20;;;23.80;;
69126;SDS011;56688;50.234;19.292;2024-02-26T03:56:08;53.50;;;26.30;;
69126;SDS011;56688;50.234;19.292;2024-02-26T03:58:38;59.20;;;28.10;;
69126;SDS011;56688;50.234;19.292;2024-02-26T04:01:07;62.70;;;30.70;;
69126;SDS011;56688;50.234;19.292;2024-02-26T04:03:35;59.70;;;28.50;;
69126;SDS011;56688;50.234;19.292;2024-02-26T04:06:02;58.30;;;28.10;;
69126;SDS011;56688;50.234;19.292;2024-02-26T04:08:30;50.00;;;25.50;;
69126;SDS011;56688;50.234;19.292;2024-02-26T04:10:59;49.20;;;24.40;;
69126;SDS011;56688;50.234;19.292;2024-02-26T04:13:26;51.10;;;24.00;;
69126;SDS011;56688;50.234;19.292;2024-02-26T04:15:53;48.20;;;24.70;;
69126;SDS011;56688;50.234;19.292;2024-02-26T04:18:20;47.00;;;23.40;;
69126;SDS011;56688;50.234;19.292;2024-02-26T04:20:47;47.20;;;21.90;;
69126;SDS011;56688;50.234;19.292;2024-02-26T04:23:14;49.10;;;23.20;;
69126;SDS011;56688;50.234;19.292;2024-02-26T04:25:41;51.80;;;24.40;;
69126;SDS011;56688;50.234;19.292;2024-02-26T04:28:08;51.20;;;24.40;;
69126;SDS011;56688;50.234;19.292;2024-02-26T04:30:35;49.50;;;24.10;;
69126;SDS011;56688;50.234;19.292;2024-02-26T04:33:02;44.90;;;22.00;;
69126;SDS011;56688;50.234;19.292;2024-02-26T04:35:30;40.80;;;20.00;;
69126;SDS011;56688;50.234;19.292;2024-02-26T04:37:57;44.20;;;20.30;;
69126;SDS011;56688;50.234;19.292;2024-02-26T04:40:24;40.40;;;19.90;;
69126;SDS011;56688;50.234;19.292;2024-02-26T04:42:52;44.20;;;20.80;;
69126;SDS011;56688;50.234;19.292;2024-02-26T04:45:19;43.60;;;19.90;;
69126;SDS011;56688;50.234;19.292;2024-02-26T04:47:46;39.70;;;18.50;;
69126;SDS011;56688;50.234;19.292;2024-02-26T04:50:13;37.70;;;17.80;;
69126;SDS011;56688;50.234;19.292;2024-02-26T04:52:40;41.40;;;21.60;;
69126;SDS011;56688;50.234;19.292;2024-02-26T04:55:07;43.10;;;21.50;;
69126;SDS011;56688;50.234;19.292;2024-02-26T04:57:34;52.80;;;27.60;;
69126;SDS011;56688;50.234;19.292;2024-02-26T05:00:02;64.40;;;28.50;;
69126;SDS011;56688;50.234;19.292;2024-02-26T05:02:31;54.40;;;28.10;;
69126;SDS011;56688;50.234;19.292;2024-02-26T05:05:00;49.40;;;24.80;;
69126;SDS011;56688;50.234;19.292;2024-02-26T05:07:27;49.40;;;23.10;;
69126;SDS011;56688;50.234;19.292;2024-02-26T05:09:54;48.80;;;23.30;;
69126;SDS011;56688;50.234;19.292;2024-02-26T05:12:22;47.50;;;23.80;;
69126;SDS011;56688;50.234;19.292;2024-02-26T05:14:49;47.00;;;22.90;;
69126;SDS011;56688;50.234;19.292;2024-02-26T05:17:16;49.10;;;22.10;;
69126;SDS011;56688;50.234;19.292;2024-02-26T05:19:43;31.40;;;17.70;;
69126;SDS011;56688;50.234;19.292;2024-02-26T05:22:11;36.20;;;17.70;;
69126;SDS011;56688;50.234;19.292;2024-02-26T05:24:38;40.20;;;19.00;;
69126;SDS011;56688;50.234;19.292;2024-02-26T05:27:05;35.00;;;17.40;;
69126;SDS011;56688;50.234;19.292;2024-02-26T05:29:32;42.20;;;19.20;;
69126;SDS011;56688;50.234;19.292;2024-02-26T05:31:59;43.20;;;20.50;;
69126;SDS011;56688;50.234;19.292;2024-02-26T05:34:26;43.20;;;21.90;;
69126;SDS011;56688;50.234;19.292;2024-02-26T05:36:53;40.10;;;20.30;;
69126;SDS011;56688;50.234;19.292;2024-02-26T05:39:20;39.50;;;19.00;;
69126;SDS011;56688;50.234;19.292;2024-02-26T05:41:48;46.90;;;21.50;;
69126;SDS011;56688;50.234;19.292;2024-02-26T05:44:17;41.20;;;20.00;;
69126;SDS011;56688;50.234;19.292;2024-02-26T05:46:44;36.00;;;17.60;;
69126;SDS011;56688;50.234;19.292;2024-02-26T05:49:11;35.70;;;17.30;;
69126;SDS011;56688;50.234;19.292;2024-02-26T05:51:38;34.60;;;17.40;;
69126;SDS011;56688;50.234;19.292;2024-02-26T05:54:05;28.70;;;14.00;;
69126;SDS011;56688;50.234;19.292;2024-02-26T05:56:32;29.50;;;15.50;;
69126;SDS011;56688;50.234;19.292;2024-02-26T05:58:59;29.90;;;14.60;;
69126;SDS011;56688;50.234;19.292;2024-02-26T06:01:26;30.60;;;15.20;;
69126;SDS011;56688;50.234;19.292;2024-02-26T06:03:53;37.70;;;19.50;;
69126;SDS011;56688;50.234;19.292;2024-02-26T06:06:20;40.20;;;19.70;;
69126;SDS011;56688;50.234;19.292;2024-02-26T06:08:50;42.70;;;20.40;;
69126;SDS011;56688;50.234;19.292;2024-02-26T06:11:17;40.70;;;20.60;;
69126;SDS011;56688;50.234;19.292;2024-02-26T06:13:44;36.60;;;17.70;;
69126;SDS011;56688;50.234;19.292;2024-02-26T06:16:12;36.20;;;18.70;;
69126;SDS011;56688;50.234;19.292;2024-02-26T06:18:39;39.30;;;19.10;;
69126;SDS011;56688;50.234;19.292;2024-02-26T06:21:09;33.90;;;17.10;;
69126;SDS011;56688;50.234;19.292;2024-02-26T06:23:38;37.40;;;18.20;;
69126;SDS011;56688;50.234;19.292;2024-02-26T06:26:05;34.80;;;17.60;;
69126;SDS011;56688;50.234;19.292;2024-02-26T06:28:33;40.70;;;19.50;;
69126;SDS011;56688;50.234;19.292;2024-02-26T06:31:02;33.30;;;17.30;;
69126;SDS011;56688;50.234;19.292;2024-02-26T06:33:29;40.00;;;19.30;;
69126;SDS011;56688;50.234;19.292;2024-02-26T06:35:57;31.50;;;17.40;;
69126;SDS011;56688;50.234;19.292;2024-02-26T06:38:24;33.50;;;17.80;;
69126;SDS011;56688;50.234;19.292;2024-02-26T06:40:51;31.60;;;16.90;;
69126;SDS011;56688;50.234;19.292;2024-02-26T06:43:18;30.00;;;14.30;;
69126;SDS011;56688;50.234;19.292;2024-02-26T06:45:45;27.40;;;13.90;;
69126;SDS011;56688;50.234;19.292;2024-02-26T06:48:12;29.60;;;15.30;;
69126;SDS011;56688;50.234;19.292;2024-02-26T06:50:39;28.00;;;14.90;;
69126;SDS011;56688;50.234;19.292;2024-02-26T06:53:08;28.10;;;13.90;;
69126;SDS011;56688;50.234;19.292;2024-02-26T06:55:35;25.30;;;12.20;;
69126;SDS011;56688;50.234;19.292;2024-02-26T06:58:04;26.30;;;14.20;;
69126;SDS011;56688;50.234;19.292;2024-02-26T07:00:31;24.00;;;12.60;;
69126;SDS011;56688;50.234;19.292;2024-02-26T07:02:58;25.30;;;12.10;;
69126;SDS011;56688;50.234;19.292;2024-02-26T07:05:25;29.70;;;15.40;;
69126;SDS011;56688;50.234;19.292;2024-02-26T07:07:53;29.90;;;13.20;;
69126;SDS011;56688;50.234;19.292;2024-02-26T07:10:21;28.30;;;15.40;;
69126;SDS011;56688;50.234;19.292;2024-02-26T07:12:48;31.50;;;18.40;;
69126;SDS011;56688;50.234;19.292;2024-02-26T07:15:15;28.60;;;15.80;;
69126;SDS011;56688;50.234;19.292;2024-02-26T07:17:42;29.30;;;15.90;;
69126;SDS011;56688;50.234;19.292;2024-02-26T07:20:14;24.90;;;13.90;;
69126;SDS011;56688;50.234;19.292;2024-02-26T07:22:41;23.40;;;12.70;;
69126;SDS011;56688;50.234;19.292;2024-02-26T07:25:09;22.10;;;12.90;;
69126;SDS011;56688;50.234;19.292;2024-02-26T07:27:40;22.90;;;12.60;;
69126;SDS011;56688;50.234;19.292;2024-02-26T07:30:07;25.00;;;15.80;;
69126;SDS011;56688;50.234;19.292;2024-02-26T07:32:36;30.30;;;18.80;;
69126;SDS011;56688;50.234;19.292;2024-02-26T07:35:03;27.20;;;18.70;;
69126;SDS011;56688;50.234;19.292;2024-02-26T07:37:31;20.90;;;13.10;;
69126;SDS011;56688;50.234;19.292;2024-02-26T07:39:58;14.20;;;9.00;;
69126;SDS011;56688;50.234;19.292;2024-02-26T07:42:25;17.70;;;8.00;;
69126;SDS011;56688;50.234;19.292;2024-02-26T07:44:52;14.20;;;7.90;;
69126;SDS011;56688;50.234;19.292;2024-02-26T07:47:19;14.40;;;8.00;;
69126;SDS011;56688;50.234;19.292;2024-02-26T07:49:46;11.70;;;6.80;;
69126;SDS011;56688;50.234;19.292;2024-02-26T07:52:13;16.20;;;7.50;;
69126;SDS011;56688;50.234;19.292;2024-02-26T07:54:40;16.70;;;8.70;;
69126;SDS011;56688;50.234;19.292;2024-02-26T07:57:08;17.80;;;9.40;;
69126;SDS011;56688;50.234;19.292;2024-02-26T07:59:35;17.60;;;10.10;;
69126;SDS011;56688;50.234;19.292;2024-02-26T08:02:02;25.30;;;10.70;;
69126;SDS011;56688;50.234;19.292;2024-02-26T08:04:30;19.80;;;10.50;;
69126;SDS011;56688;50.234;19.292;2024-02-26T08:06:57;20.10;;;10.50;;
69126;SDS011;56688;50.234;19.292;2024-02-26T08:09:25;22.60;;;10.00;;
69126;SDS011;56688;50.234;19.292;2024-02-26T08:11:52;23.40;;;11.70;;
69126;SDS011;56688;50.234;19.292;2024-02-26T08:14:19;24.30;;;10.90;;
69126;SDS011;56688;50.234;19.292;2024-02-26T08:16:46;27.10;;;11.10;;
69126;SDS011;56688;50.234;19.292;2024-02-26T08:19:13;23.10;;;11.30;;
69126;SDS011;56688;50.234;19.292;2024-02-26T08:21:42;22.10;;;10.70;;
69126;SDS011;56688;50.234;19.292;2024-02-26T08:24:09;25.50;;;10.60;;
69126;SDS011;56688;50.234;19.292;2024-02-26T08:26:36;26.60;;;11.20;;
69126;SDS011;56688;50.234;19.292;2024-02-26T08:29:03;25.00;;;10.50;;
69126;SDS011;56688;50.234;19.292;2024-02-26T08:31:30;20.40;;;10.10;;
69126;SDS011;56688;50.234;19.292;2024-02-26T08:33:57;23.30;;;8.90;;
69126;SDS011;56688;50.234;19.292;2024-02-26T08:36:26;19.60;;;8.60;;
69126;SDS011;56688;50.234;19.292;2024-02-26T08:38:53;21.10;;;9.70;;
69126;SDS011;56688;50.234;19.292;2024-02-26T08:41:20;17.10;;;8.60;;
69126;SDS011;56688;50.234;19.292;2024-02-26T08:43:47;17.30;;;9.60;;
69126;SDS011;56688;50.234;19.292;2024-02-26T08:46:15;20.00;;;10.00;;
69126;SDS011;56688;50.234;19.292;2024-02-26T08:48:42;22.80;;;9.20;;
69126;SDS011;56688;50.234;19.292;2024-02-26T08:51:09;20.10;;;9.60;;
69126;SDS011;56688;50.234;19.292;2024-02-26T08:53:36;21.30;;;9.50;;
69126;SDS011;56688;50.234;19.292;2024-02-26T08:56:09;23.10;;;9.50;;
69126;SDS011;56688;50.234;19.292;2024-02-26T08:58:44;17.50;;;8.90;;
69126;SDS011;56688;50.234;19.292;2024-02-26T09:01:13;17.70;;;9.00;;
69126;SDS011;56688;50.234;19.292;2024-02-26T09:03:40;14.90;;;8.60;;
69126;SDS011;56688;50.234;19.292;2024-02-26T09:06:07;15.90;;;8.40;;
69126;SDS011;56688;50.234;19.292;2024-02-26T09:08:35;16.20;;;8.30;;
69126;SDS011;56688;50.234;19.292;2024-02-26T09:11:03;15.60;;;8.10;;
69126;SDS011;56688;50.234;19.292;2024-02-26T09:13:31;14.30;;;7.70;;
69126;SDS011;56688;50.234;19.292;2024-02-26T09:15:58;14.00;;;8.20;;
69126;SDS011;56688;50.234;19.292;2024-02-26T09:18:26;12.00;;;7.10;;
69126;SDS011;56688;50.234;19.292;2024-02-26T09:20:56;12.20;;;6.30;;
69126;SDS011;56688;50.234;19.292;2024-02-26T09:23:23;6.60;;;4.10;;
69126;SDS011;56688;50.234;19.292;2024-02-26T09:25:50;6.30;;;3.40;;
69126;SDS011;56688;50.234;19.292;2024-02-26T09:28:17;4.30;;;3.40;;
69126;SDS011;56688;50.234;19.292;2024-02-26T09:30:44;6.90;;;4.20;;
69126;SDS011;56688;50.234;19.292;2024-02-26T09:33:13;5.60;;;3.70;;
69126;SDS011;56688;50.234;19.292;2024-02-26T09:35:40;4.90;;;3.70;;
69126;SDS011;56688;50.234;19.292;2024-02-26T09:38:08;4.60;;;3.40;;
69126;SDS011;56688;50.234;19.292;2024-02-26T09:40:35;6.00;;;3.40;;
69126;SDS011;56688;50.234;19.292;2024-02-26T09:43:04;5.10;;;3.10;;
69126;SDS011;56688;50.234;19.292;2024-02-26T09:45:32;5.10;;;3.50;;
69126;SDS011;56688;50.234;19.292;2024-02-26T09:48:01;3.60;;;2.10;;
69126;SDS011;56688;50.234;19.292;2024-02-26T09:50:30;4.50;;;2.60;;
69126;SDS011;56688;50.234;19.292;2024-02-26T09:52:58;8.10;;;4.30;;
69126;SDS011;56688;50.234;19.292;2024-02-26T09:55:29;5.40;;;4.00;;
69126;SDS011;56688;50.234;19.292;2024-02-26T09:57:56;2.90;;;2.40;;
69126;SDS011;56688;50.234;19.292;2024-02-26T10:00:25;3.00;;;2.10;;
69126;SDS011;56688;50.234;19.292;2024-02-26T10:03:02;2.90;;;1.80;;
69126;SDS011;56688;50.234;19.292;2024-02-26T10:05:31;3.00;;;1.80;;
69126;SDS011;56688;50.234;19.292;2024-02-26T10:08:00;1.80;;;1.50;;
69126;SDS011;56688;50.234;19.292;2024-02-26T10:10:29;2.20;;;1.50;;
69126;SDS011;56688;50.234;19.292;2024-02-26T10:12:56;1.70;;;1.40;;
69126;SDS011;56688;50.234;19.292;2024-02-26T10:15:23;1.70;;;1.40;;
69126;SDS011;56688;50.234;19.292;2024-02-26T10:17:50;2.60;;;1.60;;
69126;SDS011;56688;50.234;19.292;2024-02-26T10:20:17;2.50;;;1.50;;
69126;SDS011;56688;50.234;19.292;2024-02-26T10:22:49;1.50;;;1.40;;
69126;SDS011;56688;50.234;19.292;2024-02-26T10:25:16;2.80;;;2.00;;
69126;SDS011;56688;50.234;19.292;2024-02-26T10:27:45;3.60;;;2.70;;
69126;SDS011;56688;50.234;19.292;2024-02-26T10:30:17;3.00;;;2.30;;
69126;SDS011;56688;50.234;19.292;2024-02-26T10:32:45;1.60;;;1.30;;
69126;SDS011;56688;50.234;19.292;2024-02-26T10:35:14;1.90;;;1.20;;
69126;SDS011;56688;50.234;19.292;2024-02-26T10:37:43;1.10;;;1.00;;
69126;SDS011;56688;50.234;19.292;2024-02-26T10:40:13;2.60;;;1.00;;
69126;SDS011;56688;50.234;19.292;2024-02-26T10:42:50;3.90;;;1.00;;
69126;SDS011;56688;50.234;19.292;2024-02-26T10:45:17;2.20;;;1.40;;
69126;SDS011;56688;50.234;19.292;2024-02-26T10:47:45;1.30;;;1.20;;
69126;SDS011;56688;50.234;19.292;2024-02-26T10:53:01;2.00;;;1.30;;
69126;SDS011;56688;50.234;19.292;2024-02-26T10:55:30;1.20;;;1.10;;
69126;SDS011;56688;50.234;19.292;2024-02-26T10:58:01;4.60;;;2.80;;
69126;SDS011;56688;50.234;19.292;2024-02-26T11:00:29;2.10;;;1.90;;
69126;SDS011;56688;50.234;19.292;2024-02-26T11:02:58;1.60;;;1.50;;
69126;SDS011;56688;50.234;19.292;2024-02-26T11:05:29;1.50;;;1.40;;
69126;SDS011;56688;50.234;19.292;2024-02-26T11:07:57;2.00;;;1.80;;
69126;SDS011;56688;50.234;19.292;2024-02-26T11:10:24;2.60;;;2.30;;
69126;SDS011;56688;50.234;19.292;2024-02-26T11:12:53;3.00;;;1.60;;
69126;SDS011;56688;50.234;19.292;2024-02-26T11:15:22;4.70;;;3.70;;
69126;SDS011;56688;50.234;19.292;2024-02-26T11:17:49;2.10;;;1.80;;
69126;SDS011;56688;50.234;19.292;2024-02-26T11:20:19;4.10;;;3.00;;
69126;SDS011;56688;50.234;19.292;2024-02-26T11:22:46;4.00;;;2.80;;
69126;SDS011;56688;50.234;19.292;2024-02-26T11:25:13;2.50;;;1.70;;
69126;SDS011;56688;50.234;19.292;2024-02-26T11:27:44;3.20;;;2.50;;
69126;SDS011;56688;50.234;19.292;2024-02-26T11:30:16;3.60;;;2.80;;
69126;SDS011;56688;50.234;19.292;2024-02-26T11:32:45;4.40;;;4.00;;
69126;SDS011;56688;50.234;19.292;2024-02-26T11:35:13;2.70;;;1.90;;
69126;SDS011;56688;50.234;19.292;2024-02-26T11:37:53;4.00;;;1.70;;
69126;SDS011;56688;50.234;19.292;2024-02-26T11:40:23;3.20;;;1.60;;
69126;SDS011;56688;50.234;19.292;2024-02-26T11:42:53;2.10;;;1.60;;
69126;SDS011;56688;50.234;19.292;2024-02-26T11:48:13;2.30;;;1.70;;
69126;SDS011;56688;50.234;19.292;2024-02-26T11:50:42;4.70;;;1.90;;
69126;SDS011;56688;50.234;19.292;2024-02-26T11:55:47;4.10;;;2.30;;
69126;SDS011;56688;50.234;19.292;2024-02-26T11:58:16;4.10;;;2.10;;
69126;SDS011;56688;50.234;19.292;2024-02-26T12:00:43;4.30;;;2.50;;
69126;SDS011;56688;50.234;19.292;2024-02-26T12:03:10;3.10;;;2.00;;
69126;SDS011;56688;50.234;19.292;2024-02-26T12:05:39;3.20;;;1.90;;
69126;SDS011;56688;50.234;19.292;2024-02-26T12:08:07;3.50;;;1.80;;
69126;SDS011;56688;50.234;19.292;2024-02-26T12:10:36;5.60;;;3.20;;
69126;SDS011;56688;50.234;19.292;2024-02-26T12:13:11;2.90;;;2.20;;
69126;SDS011;56688;50.234;19.292;2024-02-26T12:15:57;4.60;;;2.60;;
69126;SDS011;56688;50.234;19.292;2024-02-26T12:18:26;4.40;;;3.40;;
69126;SDS011;56688;50.234;19.292;2024-02-26T12:20:58;10.20;;;6.20;;
69126;SDS011;56688;50.234;19.292;2024-02-26T12:23:26;3.90;;;2.60;;
69126;SDS011;56688;50.234;19.292;2024-02-26T12:25:58;4.40;;;2.50;;
69126;SDS011;56688;50.234;19.292;2024-02-26T12:28:27;4.00;;;2.10;;
69126;SDS011;56688;50.234;19.292;2024-02-26T12:30:56;3.50;;;2.20;;
69126;SDS011;56688;50.234;19.292;2024-02-26T12:33:26;2.40;;;1.80;;
69126;SDS011;56688;50.234;19.292;2024-02-26T12:35:56;2.80;;;1.70;;
69126;SDS011;56688;50.234;19.292;2024-02-26T12:38:23;2.60;;;1.90;;
69126;SDS011;56688;50.234;19.292;2024-02-26T12:40:51;3.00;;;1.90;;
69126;SDS011;56688;50.234;19.292;2024-02-26T12:43:18;2.90;;;2.10;;
69126;SDS011;56688;50.234;19.292;2024-02-26T12:45:45;6.50;;;2.70;;
69126;SDS011;56688;50.234;19.292;2024-02-26T12:48:14;5.50;;;3.10;;
69126;SDS011;56688;50.234;19.292;2024-02-26T12:50:44;5.00;;;3.20;;
69126;SDS011;56688;50.234;19.292;2024-02-26T12:53:14;5.30;;;3.10;;
69126;SDS011;56688;50.234;19.292;2024-02-26T12:55:41;5.30;;;2.70;;
69126;SDS011;56688;50.234;19.292;2024-02-26T12:58:09;3.30;;;2.50;;
69126;SDS011;56688;50.234;19.292;2024-02-26T13:00:37;4.90;;;2.80;;
69126;SDS011;56688;50.234;19.292;2024-02-26T13:03:05;5.80;;;3.10;;
69126;SDS011;56688;50.234;19.292;2024-02-26T13:05:32;5.20;;;3.00;;
69126;SDS011;56688;50.234;19.292;2024-02-26T13:08:01;5.60;;;3.40;;
69126;SDS011;56688;50.234;19.292;2024-02-26T13:10:32;5.10;;;3.30;;
69126;SDS011;56688;50.234;19.292;2024-02-26T13:13:01;6.60;;;3.10;;
69126;SDS011;56688;50.234;19.292;2024-02-26T13:15:29;4.80;;;3.30;;
69126;SDS011;56688;50.234;19.292;2024-02-26T13:17:57;7.80;;;4.30;;
69126;SDS011;56688;50.234;19.292;2024-02-26T13:20:25;5.50;;;3.60;;
69126;SDS011;56688;50.234;19.292;2024-02-26T13:23:00;7.00;;;4.00;;
69126;SDS011;56688;50.234;19.292;2024-02-26T13:25:29;7.20;;;4.20;;
69126;SDS011;56688;50.234;19.292;2024-02-26T13:30:52;10.20;;;4.80;;
69126;SDS011;56688;50.234;19.292;2024-02-26T13:33:23;6.20;;;3.90;;
69126;SDS011;56688;50.234;19.292;2024-02-26T13:35:52;6.60;;;4.00;;
69126;SDS011;56688;50.234;19.292;2024-02-26T13:38:20;7.60;;;3.80;;
69126;SDS011;56688;50.234;19.292;2024-02-26T13:40:47;5.70;;;3.60;;
69126;SDS011;56688;50.234;19.292;2024-02-26T13:43:14;5.90;;;3.30;;
69126;SDS011;56688;50.234;19.292;2024-02-26T13:45:42;7.00;;;3.30;;
69126;SDS011;56688;50.234;19.292;2024-02-26T13:48:10;6.40;;;3.30;;
69126;SDS011;56688;50.234;19.292;2024-02-26T13:50:38;8.10;;;3.90;;
69126;SDS011;56688;50.234;19.292;2024-02-26T13:53:06;5.30;;;3.40;;
69126;SDS011;56688;50.234;19.292;2024-02-26T13:55:37;5.80;;;3.80;;
69126;SDS011;56688;50.234;19.292;2024-02-26T13:58:04;5.90;;;3.60;;
69126;SDS011;56688;50.234;19.292;2024-02-26T14:00:31;5.80;;;3.50;;
69126;SDS011;56688;50.234;19.292;2024-02-26T14:03:01;5.00;;;3.30;;
69126;SDS011;56688;50.234;19.292;2024-02-26T14:05:28;6.40;;;3.50;;
69126;SDS011;56688;50.234;19.292;2024-02-26T14:07:56;4.40;;;3.10;;
69126;SDS011;56688;50.234;19.292;2024-02-26T14:10:24;4.20;;;3.10;;
69126;SDS011;56688;50.234;19.292;2024-02-26T14:12:51;4.90;;;3.10;;
69126;SDS011;56688;50.234;19.292;2024-02-26T14:15:18;6.60;;;3.80;;
69126;SDS011;56688;50.234;19.292;2024-02-26T14:17:45;7.30;;;4.00;;
69126;SDS011;56688;50.234;19.292;2024-02-26T14:20:20;3.60;;;3.00;;
69126;SDS011;56688;50.234;19.292;2024-02-26T14:22:48;7.20;;;3.60;;
69126;SDS011;56688;50.234;19.292;2024-02-26T14:25:15;4.50;;;3.40;;
69126;SDS011;56688;50.234;19.292;2024-02-26T14:27:42;5.60;;;3.50;;
69126;SDS011;56688;50.234;19.292;2024-02-26T14:30:09;7.30;;;3.30;;
69126;SDS011;56688;50.234;19.292;2024-02-26T14:32:37;6.00;;;2.80;;